Time;durP1;ratioP1;P1;durP2;ratioP2;P2;SDS_P1;SDS_P2;PMS_P1;PMS_P2;Temp;Humidity;BMP_temperature;BMP_pressure;BME280_temperature;BME280_humidity;BME280_pressure;Samples;Min_cycle;Max_cycle;Signal;HPM_P1;HPM_P2
2023/01/02 00:00:12;;;;;;;15.73;12.65;;;;;;;5.86;88.88;99946.06;5107655;28;20036;-74
2023/01/02 00:02:40;;;;;;;18.65;14.38;;;;;;;5.87;88.83;99942.50;5108176;28;20050;-74
2023/01/02 00:05:07;;;;;;;18.58;13.77;;;;;;;5.86;88.71;99939.03;5108157;28;20039;-74
2023/01/02 00:07:34;;;;;;;15.88;13.45;;;;;;;5.84;88.82;99945.22;5107171;28;20119;-73
2023/01/02 00:10:01;;;;;;;16.50;13.13;;;;;;;5.80;89.20;99952.34;5107542;28;20052;-74
2023/01/02 00:12:27;;;;;;;15.57;13.13;;;;;;;5.77;89.14;99952.41;5105895;28;20300;-74
2023/01/02 00:14:54;;;;;;;16.25;13.75;;;;;;;5.22;89.15;99869.69;5105962;28;20042;-73
2023/01/02 00:17:21;;;;;;;16.15;12.98;;;;;;;5.73;89.20;99959.53;5106532;28;20047;-73
2023/01/02 00:19:49;;;;;;;14.45;12.70;;;;;;;5.73;89.05;99951.63;5106164;28;20040;-74
2023/01/02 00:22:16;;;;;;;16.30;13.35;;;;;;;5.73;89.04;99945.50;5106270;28;20036;-74
2023/01/02 00:24:43;;;;;;;15.52;13.07;;;;;;;5.14;88.96;99834.88;5106875;28;20055;-74
2023/01/02 00:27:10;;;;;;;15.30;13.43;;;;;;;5.38;88.80;99865.78;5106727;28;20036;-74
2023/01/02 00:29:36;;;;;;;15.73;13.95;;;;;;;5.75;88.92;99928.78;5105685;28;20063;-74
2023/01/02 00:32:03;;;;;;;15.02;13.05;;;;;;;5.55;88.86;99890.75;5105558;28;20204;-74
2023/01/02 00:34:30;;;;;;;15.88;13.10;;;;;;;5.74;89.04;99924.44;5106976;28;20036;-74
2023/01/02 00:36:58;;;;;;;14.45;12.93;;;;;;;1.70;88.32;99229.81;5105483;28;20300;-74
2023/01/02 00:39:25;;;;;;;16.55;14.15;;;;;;;5.73;88.86;99911.31;5106256;28;20269;-73
2023/01/02 00:41:52;;;;;;;16.05;14.20;;;;;;;5.76;88.74;99900.72;5106414;28;20040;-74
2023/01/02 00:44:18;;;;;;;14.88;13.27;;;;;;;5.78;88.74;99907.66;5106301;28;20044;-74
2023/01/02 00:46:45;;;;;;;14.20;12.70;;;;;;;5.36;88.54;99830.78;5106474;28;20103;-74
2023/01/02 00:49:12;;;;;;;16.75;14.30;;;;;;;5.81;88.47;99909.34;5106185;28;20141;-74
2023/01/02 00:51:39;;;;;;;16.42;13.35;;;;;;;5.59;88.47;99871.38;5106355;28;20044;-74
2023/01/02 00:54:07;;;;;;;18.33;14.07;;;;;;;5.74;88.54;99911.28;5105192;28;20046;-74
2023/01/02 00:56:34;;;;;;;19.60;13.98;;;;;;;5.72;89.23;99912.22;5105183;28;20060;-74
2023/01/02 00:59:01;;;;;;;16.67;13.75;;;;;;;5.60;88.91;99892.38;5106066;28;20040;-73
2023/01/02 01:01:28;;;;;;;17.48;14.65;;;;;;;5.66;89.03;99905.34;5106164;28;20304;-74
2023/01/02 01:03:55;;;;;;;16.17;13.70;;;;;;;5.63;89.42;99909.84;5106261;28;20256;-74
2023/01/02 01:06:21;;;;;;;19.77;14.48;;;;;;;5.61;89.25;99909.88;5106433;28;20044;-74
2023/01/02 01:08:48;;;;;;;15.57;12.98;;;;;;;5.58;89.35;99904.69;5106451;28;20065;-74
2023/01/02 01:11:17;;;;;;;15.75;14.05;;;;;;;5.17;89.41;99845.31;5104807;28;20070;-74
2023/01/02 01:13:44;;;;;;;14.35;11.75;;;;;;;5.52;89.63;99902.22;5105417;28;20105;-75
2023/01/02 01:16:14;;;;;;;16.23;13.55;;;;;;;5.53;89.58;99885.53;5105888;28;20047;-74
2023/01/02 01:18:41;;;;;;;15.38;12.63;;;;;;;5.55;89.39;99898.66;5106031;28;20035;-74
2023/01/02 01:21:08;;;;;;;15.30;12.77;;;;;;;5.55;89.29;99890.75;5104813;28;20051;-74
2023/01/02 01:23:35;;;;;;;15.45;13.38;;;;;;;5.47;89.16;99872.56;5106016;28;20049;-74
2023/01/02 01:26:04;;;;;;;16.65;13.25;;;;;;;5.52;89.31;99894.34;5105962;28;20039;-73
2023/01/02 01:28:33;;;;;;;15.45;13.85;;;;;;;5.54;89.24;99896.94;5105607;28;20044;-74
2023/01/02 01:31:03;;;;;;;16.20;13.68;;;;;;;5.52;89.42;99896.97;5105042;28;20067;-74
2023/01/02 01:33:31;;;;;;;17.48;14.32;;;;;;;5.50;89.35;99888.25;5104259;28;20059;-74
2023/01/02 01:36:01;;;;;;;15.20;13.52;;;;;;;4.98;89.12;99792.38;5105576;28;20093;-73
2023/01/02 01:38:28;;;;;;;14.98;12.65;;;;;;;5.52;89.19;99891.72;5105815;28;20040;-73
2023/01/02 01:40:55;;;;;;;14.13;12.43;;;;;;;5.52;88.95;99889.06;5105500;28;20043;-74
2023/01/02 01:43:37;;;;;;;14.77;13.00;;;;;;;5.52;89.26;99890.84;5106047;28;20050;-73
2023/01/02 01:46:06;;;;;;;13.60;12.05;;;;;;;5.50;89.15;99883.00;5105701;28;20040;-74
2023/01/02 01:48:33;;;;;;;17.70;13.80;;;;;;;5.46;89.22;99878.72;5104619;28;20050;-74
2023/01/02 01:51:00;;;;;;;16.63;12.85;;;;;;;5.43;89.34;99879.66;5105658;28;20054;-74
2023/01/02 01:53:27;;;;;;;15.68;12.43;;;;;;;5.39;89.22;99875.38;5105547;28;20036;-74
2023/01/02 01:55:58;;;;;;;15.13;12.23;;;;;;;4.99;89.44;99812.47;5105683;28;20048;-74
2023/01/02 01:58:28;;;;;;;16.90;12.55;;;;;;;4.49;89.83;99751.53;5105899;28;20040;-73
2023/01/02 02:00:57;;;;;;;17.85;12.68;;;;;;;5.01;89.84;99822.94;5105262;28;20367;-73
2023/01/02 02:03:28;;;;;;;16.77;12.68;;;;;;;5.18;90.11;99851.44;5105607;28;20048;-73
2023/01/02 02:05:56;;;;;;;16.48;12.35;;;;;;;4.81;90.05;99792.75;5105839;28;20050;-73
2023/01/02 02:08:30;;;;;;;15.50;12.43;;;;;;;5.22;90.28;99848.69;5105268;28;20044;-74
2023/01/02 02:10:59;;;;;;;16.55;12.50;;;;;;;5.22;90.21;99847.81;5106300;28;20048;-73
2023/01/02 02:13:26;;;;;;;16.58;12.65;;;;;;;5.20;90.53;99853.09;5108573;28;20043;-73
2023/01/02 02:16:06;;;;;;;18.70;13.77;;;;;;;5.16;90.53;99859.34;5109587;28;20054;-73
2023/01/02 02:18:46;;;;;;;18.73;14.02;;;;;;;5.16;90.61;99855.84;5108129;28;20044;-74
2023/01/02 02:21:31;;;;;;;17.73;13.30;;;;;;;5.16;90.52;99850.59;5108877;28;20250;-73
2023/01/02 02:24:40;;;;;;;15.27;12.67;;;;;;;4.98;90.77;99815.16;5108136;28;20036;-74
2023/01/02 02:27:32;;;;;;;14.35;12.85;;;;;;;5.15;90.54;99841.84;5108894;28;20473;-74
2023/01/02 02:30:19;;;;;;;14.60;12.98;;;;;;;4.60;90.53;99738.16;5109357;28;20058;-74
2023/01/02 02:33:19;;;;;;;15.55;12.93;;;;;;;5.17;90.47;99837.41;5107834;28;20036;-74
2023/01/02 02:35:56;;;;;;;17.10;13.95;;;;;;;4.73;90.28;99776.31;5108926;28;20296;-73
2023/01/02 02:38:40;;;;;;;16.83;13.55;;;;;;;4.87;90.33;99788.25;5108967;28;20040;-74
2023/01/02 02:41:19;;;;;;;14.30;12.15;;;;;;;5.10;90.27;99838.47;5108805;28;20044;-74
2023/01/02 02:43:58;;;;;;;15.70;12.77;;;;;;;5.11;90.36;99832.31;5108662;28;20107;-74
2023/01/02 02:46:33;;;;;;;17.08;13.85;;;;;;;5.13;90.23;99833.16;5107782;28;20044;-74
2023/01/02 02:49:07;;;;;;;15.60;13.43;;;;;;;4.06;90.10;99662.47;5109068;28;20044;-74
2023/01/02 02:51:41;;;;;;;16.25;13.25;;;;;;;5.12;90.08;99826.16;5108873;28;20054;-74
2023/01/02 02:54:14;;;;;;;16.08;13.45;;;;;;;5.13;90.10;99814.75;5108921;28;20040;-74
2023/01/02 02:56:43;;;;;;;15.35;12.18;;;;;;;4.56;90.05;99733.88;5107417;28;20044;-74
2023/01/02 02:59:11;;;;;;;15.82;12.57;;;;;;;5.10;90.02;99810.44;5107440;28;20039;-74
2023/01/02 03:01:40;;;;;;;15.57;12.85;;;;;;;5.06;90.33;99807.94;5108352;28;20051;-74
2023/01/02 03:04:17;;;;;;;16.38;14.32;;;;;;;4.44;90.45;99715.81;5107573;28;20051;-74
2023/01/02 03:07:11;;;;;;;19.40;13.93;;;;;;;4.99;90.99;99803.72;5090601;28;20067;-73
2023/01/02 03:09:50;;;;;;;14.95;12.05;;;;;;;4.97;90.79;99806.41;5107740;28;20046;-73
2023/01/02 03:12:25;;;;;;;16.45;13.98;;;;;;;4.99;90.82;99806.38;5107876;28;20281;-73
2023/01/02 03:14:58;;;;;;;17.10;12.82;;;;;;;4.99;90.77;99801.97;5108229;28;20322;-74
2023/01/02 03:17:33;;;;;;;15.13;12.93;;;;;;;5.03;90.74;99806.25;5108469;28;20081;-74
2023/01/02 03:20:07;;;;;;;16.98;13.23;;;;;;;5.04;90.63;99800.09;5106996;28;20094;-74
2023/01/02 03:22:39;;;;;;;18.27;14.55;;;;;;;5.07;90.49;99801.78;5107308;28;20040;-74
2023/01/02 03:25:10;;;;;;;18.17;14.85;;;;;;;5.08;90.33;99799.09;5107771;28;20246;-74
2023/01/02 03:27:43;;;;;;;18.13;14.13;;;;;;;5.10;90.40;99802.56;5107720;28;20044;-74
2023/01/02 03:30:16;;;;;;;20.23;15.00;;;;;;;5.11;90.33;99806.06;5107631;28;20040;-74
2023/01/02 03:32:50;;;;;;;16.02;13.13;;;;;;;4.87;90.16;99770.72;5107879;28;20036;-74
2023/01/02 03:35:22;;;;;;;19.85;13.77;;;;;;;5.08;90.33;99809.63;5106696;28;20122;-74
2023/01/02 03:37:52;;;;;;;20.90;14.82;;;;;;;5.06;90.49;99814.06;5107759;28;20177;-74
2023/01/02 03:40:24;;;;;;;27.40;15.52;;;;;;;5.03;90.70;99803.63;5107989;28;20044;-73
2023/01/02 03:42:55;;;;;;;17.88;13.85;;;;;;;4.99;90.82;99807.22;5107879;28;20105;-74
2023/01/02 03:45:27;;;;;;;18.80;13.50;;;;;;;5.00;90.94;99816.84;5107674;28;20252;-74
2023/01/02 03:48:01;;;;;;;20.17;14.52;;;;;;;4.97;91.06;99808.16;5106482;28;20046;-74
2023/01/02 03:50:33;;;;;;;18.05;14.27;;;;;;;4.98;90.99;99807.25;5106425;28;20035;-74
2023/01/02 03:53:00;;;;;;;18.98;15.57;;;;;;;4.97;91.12;99806.41;5106373;28;20036;-74
2023/01/02 03:55:29;;;;;;;20.20;13.48;;;;;;;4.97;91.12;99801.16;5107719;28;20040;-74
2023/01/02 03:58:04;;;;;;;20.58;14.07;;;;;;;4.95;91.12;99802.09;5107105;28;20044;-73
2023/01/02 04:00:37;;;;;;;27.60;13.35;;;;;;;4.50;90.89;99747.16;5106771;28;20288;-74
2023/01/02 04:03:10;;;;;;;23.73;14.77;;;;;;;4.85;91.27;99811.94;5106423;28;20051;-74
2023/01/02 04:05:43;;;;;;;17.35;13.02;;;;;;;4.80;91.50;99812.03;5107143;28;20093;-74
2023/01/02 04:08:16;;;;;;;16.35;13.52;;;;;;;4.79;91.38;99804.19;5106892;28;20050;-74
2023/01/02 04:10:47;;;;;;;19.70;14.20;;;;;;;4.59;91.33;99769.69;5106850;28;20062;-74
2023/01/02 04:13:18;;;;;;;21.60;14.82;;;;;;;4.57;91.49;99763.63;5107041;28;20044;-74
2023/01/02 04:15:47;;;;;;;15.80;12.38;;;;;;;4.84;91.10;99806.72;5107019;28;20050;-74
2023/01/02 04:18:21;;;;;;;20.15;14.02;;;;;;;4.86;91.13;99815.41;5106670;28;20086;-74
2023/01/02 04:20:51;;;;;;;16.27;13.57;;;;;;;4.85;91.17;99801.41;5106974;28;20040;-74
2023/01/02 04:23:23;;;;;;;16.10;13.63;;;;;;;4.85;90.94;99809.31;5105658;28;20296;-74
2023/01/02 04:25:55;;;;;;;22.92;14.93;;;;;;;4.87;90.89;99809.25;5106582;28;20070;-74
2023/01/02 04:28:26;;;;;;;16.52;14.07;;;;;;;4.84;91.10;99806.72;5106824;28;20060;-74
2023/01/02 04:30:58;;;;;;;20.52;15.50;;;;;;;4.85;91.03;99811.94;5106880;28;20202;-74
2023/01/02 04:33:30;;;;;;;24.88;14.32;;;;;;;4.83;91.18;99813.72;5106229;28;20044;-74
2023/01/02 04:35:57;;;;;;;19.98;14.00;;;;;;;4.86;91.10;99805.78;5105528;28;20044;-74
2023/01/02 04:38:23;;;;;;;24.67;15.30;;;;;;;4.88;91.10;99803.97;5105436;28;20063;-74
2023/01/02 04:40:50;;;;;;;27.45;14.73;;;;;;;4.85;91.20;99804.06;5106538;28;20040;-74
2023/01/02 04:43:19;;;;;;;18.30;12.43;;;;;;;4.84;91.30;99812.81;5105693;28;20055;-74
2023/01/02 04:45:47;;;;;;;17.30;13.70;;;;;;;4.82;91.17;99812.00;5105603;28;20039;-74
2023/01/02 04:48:14;;;;;;;18.83;13.93;;;;;;;4.79;91.15;99805.06;5105551;28;20040;-74
2023/01/02 04:50:42;;;;;;;21.30;14.63;;;;;;;4.78;91.22;99810.34;5105454;28;20280;-74
2023/01/02 04:53:09;;;;;;;16.58;13.07;;;;;;;4.79;91.25;99806.81;5106066;28;20028;-74
2023/01/02 04:55:36;;;;;;;16.17;13.13;;;;;;;4.71;91.35;99788.63;5105262;28;20074;-74
2023/01/02 04:58:04;;;;;;;26.48;15.45;;;;;;;4.21;91.37;99724.22;5106084;28;20035;-74
2023/01/02 05:00:31;;;;;;;20.23;15.98;;;;;;;4.83;91.25;99808.47;5106510;28;20048;-74
2023/01/02 05:02:58;;;;;;;31.98;14.23;;;;;;;4.84;91.20;99810.19;5105942;28;20050;-74
2023/01/02 05:05:25;;;;;;;16.58;12.95;;;;;;;4.83;91.00;99803.22;5105161;28;20320;-74
2023/01/02 05:07:53;;;;;;;16.40;13.00;;;;;;;4.82;90.96;99802.34;5105066;28;20039;-74
2023/01/02 05:10:20;;;;;;;16.83;13.07;;;;;;;4.82;90.78;99805.00;5105794;28;20044;-74
2023/01/02 05:12:47;;;;;;;18.48;15.52;;;;;;;4.81;90.74;99811.13;5104815;28;20044;-74
2023/01/02 05:15:13;;;;;;;20.35;13.50;;;;;;;4.81;90.82;99818.16;5105827;28;20044;-74
2023/01/02 05:17:42;;;;;;;16.02;14.18;;;;;;;4.82;90.65;99823.38;5105799;28;20062;-74
2023/01/02 05:20:11;;;;;;;19.23;13.82;;;;;;;4.37;90.57;99767.59;5105009;28;20031;-74
2023/01/02 05:25:26;;;;;;;17.83;13.98;;;;;;;4.79;90.52;99812.94;5071241;28;20055;-74
2023/01/02 05:27:54;;;;;;;17.27;13.38;;;;;;;4.82;90.55;99814.63;5105793;28;20040;-74
2023/01/02 05:30:21;;;;;;;17.58;13.13;;;;;;;4.79;90.36;99814.72;5105674;28;20036;-74
2023/01/02 05:32:48;;;;;;;18.05;14.05;;;;;;;4.78;90.37;99813.84;5105930;28;20035;-74
2023/01/02 05:35:15;;;;;;;20.52;15.48;;;;;;;4.78;90.44;99807.72;5106121;28;20046;-74
2023/01/02 05:37:42;;;;;;;26.35;14.52;;;;;;;4.77;90.52;99817.38;5104805;28;20059;-74
2023/01/02 05:40:09;;;;;;;22.55;13.73;;;;;;;4.75;90.40;99811.28;5104727;28;20051;-74
2023/01/02 05:42:38;;;;;;;20.05;13.70;;;;;;;4.72;90.64;99813.13;5105399;28;20054;-74
2023/01/02 05:45:05;;;;;;;17.23;14.32;;;;;;;4.70;90.68;99825.44;5107157;28;20040;-74
2023/01/02 05:47:33;;;;;;;18.63;13.60;;;;;;;4.72;90.67;99819.25;5109969;28;20051;-75
2023/01/02 05:50:00;;;;;;;16.98;13.13;;;;;;;4.74;90.50;99830.56;5109911;28;20043;-74
2023/01/02 05:52:26;;;;;;;17.77;13.98;;;;;;;4.74;90.50;99829.72;5109809;28;20051;-74
2023/01/02 05:54:53;;;;;;;18.48;12.57;;;;;;;4.74;90.50;99830.56;5110102;28;20047;-74
2023/01/02 05:57:20;;;;;;;15.80;13.05;;;;;;;4.72;90.37;99831.50;5110099;28;20044;-74
2023/01/02 05:59:48;;;;;;;16.45;12.30;;;;;;;4.71;90.35;99835.91;5109688;28;20223;-74
2023/01/02 06:02:15;;;;;;;22.95;14.88;;;;;;;4.72;90.62;99829.75;5108478;28;20367;-75
2023/01/02 06:04:42;;;;;;;15.98;13.52;;;;;;;4.71;90.44;99830.66;5108549;28;20063;-74
2023/01/02 06:07:08;;;;;;;17.58;13.02;;;;;;;4.70;90.36;99822.81;5109885;28;20051;-74
2023/01/02 06:09:35;;;;;;;18.55;12.95;;;;;;;4.72;90.46;99831.50;5109472;28;20069;-74
2023/01/02 06:12:02;;;;;;;17.30;14.68;;;;;;;4.71;90.51;99825.41;5109116;28;20050;-74
2023/01/02 06:14:28;;;;;;;19.48;14.25;;;;;;;4.71;90.61;99827.16;5108905;28;20047;-74
2023/01/02 06:16:57;;;;;;;20.77;15.13;;;;;;;3.39;90.44;99600.25;5109510;28;20311;-74
2023/01/02 06:19:23;;;;;;;18.80;14.38;;;;;;;4.69;90.56;99816.69;5108998;28;20040;-74
2023/01/02 06:21:50;;;;;;;18.05;15.15;;;;;;;4.28;90.59;99749.44;5109512;28;20040;-74
2023/01/02 06:24:17;;;;;;;21.13;14.25;;;;;;;4.70;90.54;99817.56;5109222;28;20035;-74
2023/01/02 06:26:44;;;;;;;18.35;14.60;;;;;;;3.90;90.61;99689.94;5108893;28;20054;-74
2023/01/02 06:29:11;;;;;;;18.83;15.18;;;;;;;4.66;90.73;99826.41;5108191;28;20039;-74
2023/01/02 06:31:37;;;;;;;17.95;13.52;;;;;;;4.65;90.97;99833.41;5108939;28;20050;-74
2023/01/02 06:34:05;;;;;;;17.20;12.70;;;;;;;4.63;90.68;99837.84;5109100;28;20086;-75
2023/01/02 06:36:34;;;;;;;19.13;13.77;;;;;;;4.65;90.70;99833.41;5108724;28;20103;-74
2023/01/02 06:39:01;;;;;;;18.15;13.73;;;;;;;4.66;90.54;99843.03;5107886;28;20036;-74
2023/01/02 06:41:28;;;;;;;16.48;13.32;;;;;;;4.63;90.11;99856.22;5107847;28;20046;-74
2023/01/02 06:43:54;;;;;;;19.50;15.27;;;;;;;4.63;90.45;99831.72;5108446;28;20300;-74
2023/01/02 06:46:23;;;;;;;22.48;15.70;;;;;;;4.61;90.42;99826.50;5108794;28;20291;-74
2023/01/02 06:48:50;;;;;;;20.13;14.77;;;;;;;4.57;90.46;99821.38;5108987;28;20040;-74
2023/01/02 06:51:20;;;;;;;15.82;13.95;;;;;;;4.05;90.31;99744.66;5108968;28;20040;-74
2023/01/02 06:53:47;;;;;;;18.17;13.02;;;;;;;4.57;90.46;99832.72;5107476;28;20044;-74
2023/01/02 06:56:17;;;;;;;19.50;13.85;;;;;;;4.57;90.35;99816.13;5107462;28;20204;-74
2023/01/02 06:58:44;;;;;;;19.60;13.10;;;;;;;4.49;90.23;99809.28;5108585;28;20044;-74
2023/01/02 07:01:13;;;;;;;17.88;14.77;;;;;;;4.25;90.13;99783.59;5108782;28;20048;-74
2023/01/02 07:03:40;;;;;;;23.60;14.13;;;;;;;4.06;90.08;99767.38;5108088;28;20039;-74
2023/01/02 07:06:09;;;;;;;19.70;14.93;;;;;;;4.43;90.29;99824.31;5108531;28;20047;-74
2023/01/02 07:08:38;;;;;;;17.90;13.25;;;;;;;3.86;90.26;99738.13;5108054;28;20043;-74
2023/01/02 07:11:10;;;;;;;21.00;14.43;;;;;;;4.36;90.35;99827.97;5106934;28;20105;-74
2023/01/02 07:13:37;;;;;;;21.77;14.88;;;;;;;4.35;90.32;99831.50;5108147;28;20048;-74
2023/01/02 07:16:05;;;;;;;18.95;14.18;;;;;;;4.37;90.32;99825.31;5107953;28;20184;-74
2023/01/02 07:18:32;;;;;;;15.45;12.15;;;;;;;4.39;90.20;99822.66;5108474;28;20050;-74
2023/01/02 07:20:59;;;;;;;20.05;15.07;;;;;;;3.06;90.02;99592.22;5108229;28;20051;-74
2023/01/02 07:23:26;;;;;;;18.02;15.25;;;;;;;4.36;90.15;99828.84;5107481;28;20060;-74
2023/01/02 07:25:55;;;;;;;16.02;13.70;;;;;;;4.34;90.05;99830.63;5107428;28;20177;-74
2023/01/02 07:28:23;;;;;;;18.17;14.75;;;;;;;4.38;90.14;99841.91;5107632;28;20055;-74
2023/01/02 07:30:49;;;;;;;16.65;14.63;;;;;;;4.36;90.12;99839.34;5107637;28;20075;-74
2023/01/02 07:33:16;;;;;;;17.67;14.02;;;;;;;4.35;90.18;99837.59;5107910;28;20036;-74
2023/01/02 07:35:44;;;;;;;16.55;13.40;;;;;;;4.36;90.26;99846.34;5106998;28;20055;-74
2023/01/02 07:38:11;;;;;;;14.38;12.40;;;;;;;4.36;90.32;99836.72;5107707;28;20070;-74
2023/01/02 07:40:38;;;;;;;19.88;14.95;;;;;;;4.36;90.13;99841.94;5106662;28;20039;-74
2023/01/02 07:43:06;;;;;;;18.17;14.40;;;;;;;4.36;90.15;99839.34;5106491;28;20036;-74
2023/01/02 07:45:34;;;;;;;22.50;14.10;;;;;;;4.37;90.00;99866.44;5107257;28;20046;-74
2023/01/02 07:48:01;;;;;;;15.38;12.77;;;;;;;4.38;90.11;99836.66;5107834;28;20081;-74
2023/01/02 07:50:27;;;;;;;18.90;13.38;;;;;;;4.37;90.11;99840.19;5107668;28;20066;-74
2023/01/02 07:52:54;;;;;;;16.10;12.88;;;;;;;4.00;90.03;99775.38;5106390;28;20032;-74
2023/01/02 07:55:21;;;;;;;18.83;12.93;;;;;;;4.33;90.16;99830.66;5107169;28;20209;-74
2023/01/02 07:57:48;;;;;;;16.63;13.77;;;;;;;4.31;90.14;99830.69;5107627;28;20055;-74
2023/01/02 08:00:18;;;;;;;17.73;13.48;;;;;;;4.33;90.26;99825.41;5107103;28;20040;-74
2023/01/02 08:02:45;;;;;;;16.50;13.23;;;;;;;4.38;90.31;99831.44;5107270;28;20204;-74
2023/01/02 08:05:12;;;;;;;16.85;13.48;;;;;;;4.43;90.13;99825.19;5106994;28;20316;-74
2023/01/02 08:07:39;;;;;;;22.35;13.70;;;;;;;4.46;90.09;99824.25;5107447;28;20047;-75
2023/01/02 08:10:06;;;;;;;20.88;14.77;;;;;;;4.46;89.95;99824.25;5106889;28;20036;-74
2023/01/02 08:12:33;;;;;;;17.98;13.32;;;;;;;4.45;89.92;99822.50;5106597;28;20227;-74
2023/01/02 08:14:59;;;;;;;18.05;14.60;;;;;;;4.46;89.88;99825.09;5105950;28;20040;-74
2023/01/02 08:17:29;;;;;;;21.65;13.65;;;;;;;4.45;89.85;99815.50;5107138;28;20107;-74
2023/01/02 08:19:56;;;;;;;17.73;15.82;;;;;;;4.47;89.91;99821.59;5106713;28;20032;-75
2023/01/02 08:22:23;;;;;;;17.33;13.48;;;;;;;3.76;89.80;99699.88;5107188;28;20036;-74
2023/01/02 08:24:50;;;;;;;20.10;14.45;;;;;;;4.52;89.77;99826.72;5105722;28;20039;-74
2023/01/02 08:27:16;;;;;;;19.95;15.18;;;;;;;4.47;89.75;99832.09;5106799;28;20295;-74
2023/01/02 08:29:43;;;;;;;21.48;14.98;;;;;;;4.45;89.72;99841.75;5106881;28;20101;-74
2023/01/02 08:32:10;;;;;;;17.05;13.55;;;;;;;4.43;89.84;99850.56;5106974;28;20040;-74
2023/01/02 08:34:38;;;;;;;18.60;14.73;;;;;;;4.45;89.84;99843.50;5105584;28;20300;-74
2023/01/02 08:37:05;;;;;;;17.48;14.07;;;;;;;4.46;89.80;99846.09;5106976;28;20050;-74
2023/01/02 08:39:32;;;;;;;20.25;14.95;;;;;;;4.08;89.85;99781.31;5105431;28;20043;-74
2023/01/02 08:41:58;;;;;;;22.48;14.57;;;;;;;4.48;89.86;99848.69;5106561;28;20330;-75
2023/01/02 08:44:25;;;;;;;21.08;14.65;;;;;;;4.47;89.72;99845.19;5105541;28;20049;-74
2023/01/02 08:46:52;;;;;;;15.07;12.30;;;;;;;4.47;89.84;99837.34;5105943;28;20215;-74
2023/01/02 08:49:19;;;;;;;17.48;14.73;;;;;;;4.44;89.88;99847.91;5106190;28;20044;-74
2023/01/02 08:51:47;;;;;;;20.92;14.82;;;;;;;4.42;89.84;99854.94;5106364;28;20300;-74
2023/01/02 08:54:14;;;;;;;20.25;13.52;;;;;;;4.02;89.95;99781.47;5105233;28;20028;-74
2023/01/02 08:56:41;;;;;;;20.90;14.20;;;;;;;4.24;89.91;99813.38;5106514;28;20040;-74
2023/01/02 08:59:09;;;;;;;20.42;14.10;;;;;;;0.91;89.70;99253.94;5106594;28;20040;-74
2023/01/02 09:01:36;;;;;;;17.75;14.00;;;;;;;4.39;90.29;99862.03;5105068;28;20046;-74
2023/01/02 09:04:04;;;;;;;23.00;13.57;;;;;;;4.37;90.11;99856.81;5105682;28;20044;-74
2023/01/02 09:06:32;;;;;;;18.27;14.25;;;;;;;4.38;90.08;99857.66;5105635;28;20216;-74
2023/01/02 09:09:01;;;;;;;20.08;15.15;;;;;;;4.38;90.19;99860.28;5104961;28;20050;-74
2023/01/02 09:11:29;;;;;;;16.67;13.18;;;;;;;4.39;90.38;99868.13;5105769;28;20220;-74
2023/01/02 09:13:58;;;;;;;22.00;15.85;;;;;;;4.41;90.22;99855.84;5105944;28;20052;-74
2023/01/02 09:16:25;;;;;;;22.80;15.18;;;;;;;4.28;90.17;99841.25;5105904;28;20101;-74
2023/01/02 09:18:53;;;;;;;21.05;13.85;;;;;;;4.37;90.17;99858.56;5104277;28;20032;-74
2023/01/02 09:21:19;;;;;;;23.73;14.75;;;;;;;4.36;90.41;99854.22;5106109;28;20187;-74
2023/01/02 09:23:46;;;;;;;24.17;13.73;;;;;;;4.33;90.11;99855.16;5105879;28;20036;-74
2023/01/02 09:26:15;;;;;;;19.00;14.50;;;;;;;3.83;90.09;99774.88;5105590;28;20296;-74
2023/01/02 09:28:42;;;;;;;22.50;15.48;;;;;;;3.74;90.11;99783.81;5105647;28;20046;-74
2023/01/02 09:31:11;;;;;;;18.83;13.38;;;;;;;4.03;90.20;99816.41;5105486;28;20039;-74
2023/01/02 09:33:38;;;;;;;16.95;13.45;;;;;;;4.30;90.08;99862.22;5105419;28;20036;-74
2023/01/02 09:36:08;;;;;;;18.70;13.95;;;;;;;4.32;90.12;99857.81;5105422;28;20040;-74
2023/01/02 09:38:34;;;;;;;21.25;13.35;;;;;;;4.31;90.12;99853.44;5104559;28;20036;-74
2023/01/02 09:41:09;;;;;;;15.30;12.02;;;;;;;3.51;90.08;99744.09;5104629;28;20047;-74
2023/01/02 09:43:43;;;;;;;16.27;11.38;;;;;;;4.30;90.03;99854.34;5105642;28;20048;-74
2023/01/02 09:46:21;;;;;;;15.23;11.80;;;;;;;4.29;90.06;99852.63;5106030;28;20040;-74
2023/01/02 09:48:48;;;;;;;13.77;10.57;;;;;;;4.24;89.99;99849.22;5105711;28;20314;-74
2023/01/02 09:51:15;;;;;;;12.75;9.93;;;;;;;4.24;89.80;99842.22;5105888;28;20040;-74
2023/01/02 09:53:41;;;;;;;13.57;11.65;;;;;;;4.25;89.80;99843.09;5104500;28;20228;-74
2023/01/02 09:56:13;;;;;;;16.13;11.63;;;;;;;4.25;89.92;99835.22;5105706;28;20062;-74
2023/01/02 09:58:49;;;;;;;14.95;12.20;;;;;;;4.23;89.95;99819.50;5104440;28;20036;-74
2023/01/02 10:01:22;;;;;;;14.95;11.10;;;;;;;4.23;90.13;99821.28;5104399;28;20044;-74
2023/01/02 10:04:00;;;;;;;17.42;13.05;;;;;;;4.24;90.21;99820.38;5105702;28;20055;-74
2023/01/02 10:06:34;;;;;;;18.30;12.27;;;;;;;4.25;90.17;99822.97;5104312;28;20044;-74
2023/01/02 10:09:07;;;;;;;;;;;;;;;4.18;90.44;99822.19;5105947;28;20177;-74
2023/01/02 10:11:43;;;;;;;16.05;11.13;;;;;;;4.20;90.40;99811.72;5105122;28;19987;-74
2023/01/02 10:14:22;;;;;;;15.70;11.77;;;;;;;3.45;90.32;99699.69;5105418;28;20040;-74
2023/01/02 10:16:51;;;;;;;15.25;12.38;;;;;;;4.06;90.31;99767.38;5104652;28;20032;-74
2023/01/02 10:19:23;;;;;;;16.00;12.15;;;;;;;4.31;90.09;99809.72;5104331;28;20040;-74
2023/01/02 10:21:57;;;;;;;15.07;11.50;;;;;;;4.33;90.04;99794.78;5103684;28;20300;-74
2023/01/02 10:24:34;;;;;;;14.40;11.07;;;;;;;4.35;90.01;99792.13;5105419;28;20044;-74
2023/01/02 10:27:02;;;;;;;14.82;12.02;;;;;;;4.07;90.06;99749.88;5105001;28;20097;-74
2023/01/02 10:29:35;;;;;;;14.65;11.73;;;;;;;4.43;89.97;99795.44;5104098;28;20240;-74
2023/01/02 10:32:06;;;;;;;16.77;12.30;;;;;;;4.40;89.78;99780.63;5106703;28;20054;-74
2023/01/02 10:34:39;;;;;;;18.40;14.57;;;;;;;4.45;89.82;99776.13;5108942;28;20043;-74
2023/01/02 10:37:11;;;;;;;18.42;13.27;;;;;;;4.42;89.88;99781.47;5108928;28;20284;-74
2023/01/02 10:39:38;;;;;;;14.50;11.55;;;;;;;4.44;89.69;99773.53;5107649;28;20051;-74
2023/01/02 10:42:05;;;;;;;17.20;11.57;;;;;;;4.41;89.73;99779.72;5108997;28;20039;-74
2023/01/02 10:44:35;;;;;;;20.58;12.55;;;;;;;4.35;89.93;99781.63;5108354;28;20039;-74
2023/01/02 10:47:12;;;;;;;14.95;11.55;;;;;;;4.34;89.91;99785.16;5108576;28;20036;-74
2023/01/02 10:49:41;;;;;;;14.50;11.10;;;;;;;4.36;89.94;99780.72;5108795;28;20035;-74
2023/01/02 10:52:13;;;;;;;14.70;11.70;;;;;;;4.37;90.13;99777.22;5108649;28;20048;-74
2023/01/02 10:54:49;;;;;;;16.92;11.85;;;;;;;4.35;90.04;99764.13;5107138;28;20036;-74
2023/01/02 10:57:23;;;;;;;16.42;12.98;;;;;;;4.36;90.13;99759.75;5108227;28;20204;-74
2023/01/02 10:59:55;;;;;;;17.45;12.45;;;;;;;4.14;90.33;99714.75;5108230;28;20040;-74
2023/01/02 11:02:29;;;;;;;19.08;13.68;;;;;;;4.24;90.18;99739.03;5108035;28;20050;-74
2023/01/02 11:05:00;;;;;;;17.45;12.40;;;;;;;4.39;90.16;99757.03;5107954;28;20051;-74
2023/01/02 11:07:32;;;;;;;20.00;12.40;;;;;;;4.38;90.18;99750.06;5108247;28;20085;-74
2023/01/02 11:09:59;;;;;;;14.98;12.30;;;;;;;4.38;90.22;99756.19;5107080;28;20314;-74
2023/01/02 11:12:26;;;;;;;15.98;11.70;;;;;;;4.43;90.07;99762.19;5107130;28;20070;-74
2023/01/02 11:15:10;;;;;;;15.98;11.85;;;;;;;4.27;90.11;99728.47;5108016;28;20181;-74
2023/01/02 11:17:42;;;;;;;14.80;11.18;;;;;;;4.45;90.00;99749.88;5107363;28;20040;-74
2023/01/02 11:20:24;;;;;;;15.57;11.70;;;;;;;4.47;89.79;99745.47;5107742;28;20051;-74
2023/01/02 11:22:51;;;;;;;13.77;11.20;;;;;;;4.45;89.75;99749.03;5090996;28;20032;-74
2023/01/02 11:25:22;;;;;;;17.75;12.68;;;;;;;4.44;89.74;99757.81;5107101;28;20036;-74
2023/01/02 11:27:50;;;;;;;15.88;11.93;;;;;;;4.45;89.57;99744.63;5106889;28;20036;-74
2023/01/02 11:30:43;;;;;;;18.45;12.10;;;;;;;4.42;89.63;99754.34;5107710;28;20040;-74
2023/01/02 11:33:19;;;;;;;19.50;13.32;;;;;;;4.39;89.62;99749.16;5106535;28;20040;-75
2023/01/02 11:35:48;;;;;;;14.55;10.63;;;;;;;4.37;89.43;99741.34;5107653;28;20028;-74
2023/01/02 11:38:17;;;;;;;15.07;11.25;;;;;;;4.36;89.44;99739.63;5106976;28;20058;-74
2023/01/02 11:40:59;;;;;;;16.58;12.25;;;;;;;4.41;89.51;99736.88;5106608;28;20290;-74